createdAt,value
2023-01-10T00:43:58.489Z,4.27
2023-01-10T00:46:27.667Z,4.43
2023-01-10T00:48:58.956Z,4.73
2023-01-10T00:51:38.463Z,4.67
2023-01-10T01:47:23.821Z,3.20
2023-01-10T01:58:21.780Z,3.00
2023-01-10T02:15:30.822Z,3.33
2023-01-10T02:18:02.517Z,3.10
2023-01-10T02:20:39.124Z,2.87
2023-01-10T02:23:39.127Z,2.87
2023-01-10T02:31:48.135Z,2.87
2023-01-10T06:47:42.171Z,3.67
2023-01-10T06:50:11.760Z,3.50
2023-01-10T06:52:39.940Z,4.03
2023-01-10T06:55:08.993Z,4.00
2023-01-10T06:57:38.706Z,4.53
2023-01-10T07:00:09.089Z,3.87
2023-01-10T07:02:38.190Z,3.90
2023-01-10T07:05:10.544Z,3.97
2023-01-10T07:07:39.591Z,4.17
2023-01-10T07:10:09.255Z,4.27
2023-01-10T07:12:37.409Z,4.33
2023-01-10T07:15:06.422Z,3.60
2023-01-10T07:17:34.643Z,3.90
2023-01-10T07:20:02.663Z,4.70
2023-01-10T07:22:33.564Z,5.00
2023-01-10T07:25:01.607Z,4.03
2023-01-10T07:27:31.996Z,4.47
2023-01-10T07:30:00.549Z,4.27
2023-01-10T07:32:28.876Z,4.93
2023-01-10T07:34:57.042Z,4.40
2023-01-10T07:37:26.089Z,4.33
2023-01-10T07:39:56.219Z,3.80
2023-01-10T07:42:24.569Z,5.00
2023-01-10T07:44:52.754Z,5.03
2023-01-10T07:47:20.826Z,4.30
2023-01-10T07:49:48.816Z,5.10
2023-01-10T07:52:16.876Z,4.50
2023-01-10T07:54:44.975Z,4.67
2023-01-10T07:57:15.721Z,4.80
2023-01-10T07:59:44.543Z,4.73
2023-01-10T08:02:12.821Z,4.80
2023-01-10T08:04:40.857Z,4.40
2023-01-10T08:07:09.339Z,4.63
2023-01-10T08:09:37.370Z,5.30
2023-01-10T08:12:05.732Z,4.33
2023-01-10T08:14:35.358Z,5.20
2023-01-10T08:17:03.435Z,5.03
2023-01-10T08:19:31.463Z,4.87
2023-01-10T08:22:00.665Z,5.27
2023-01-10T08:24:28.663Z,4.67
2023-01-10T08:26:59.734Z,4.70
2023-01-10T08:29:28.255Z,4.90
2023-01-10T08:32:00.617Z,4.53
2023-01-10T08:34:28.699Z,4.80
2023-01-10T08:36:56.748Z,5.70
2023-01-10T08:39:26.504Z,5.57
2023-01-10T08:41:55.025Z,5.33
2023-01-10T08:44:23.160Z,5.20
2023-01-10T08:46:51.336Z,5.53
2023-01-10T08:49:20.974Z,4.80
2023-01-10T08:51:49.122Z,5.23
2023-01-10T08:54:17.156Z,4.90
2023-01-10T08:56:45.705Z,5.07
2023-01-10T08:59:14.234Z,5.80
2023-01-10T09:01:42.597Z,5.33
2023-01-10T09:04:10.832Z,5.27
2023-01-10T09:06:40.455Z,4.77
2023-01-10T09:09:08.586Z,5.33
2023-01-10T09:11:38.761Z,5.60
2023-01-10T09:14:08.576Z,5.57
2023-01-10T09:16:36.743Z,5.73
2023-01-10T09:19:05.000Z,5.63
2023-01-10T09:21:33.126Z,5.80
2023-01-10T09:24:03.322Z,5.27
2023-01-10T09:26:32.059Z,5.43
2023-01-10T09:29:00.328Z,5.20
2023-01-10T09:31:31.127Z,6.43
2023-01-10T09:33:59.341Z,4.80
2023-01-10T09:36:27.787Z,4.77
2023-01-10T09:38:56.716Z,5.27
2023-01-10T09:41:49.180Z,5.00
2023-01-10T09:44:21.600Z,5.87
2023-01-10T09:46:58.963Z,5.20
2023-01-10T09:49:40.519Z,5.47
2023-01-10T09:52:18.184Z,5.60
2023-01-10T09:54:47.620Z,5.20
2023-01-10T09:57:20.456Z,5.77
2023-01-10T09:59:51.064Z,5.53
2023-01-10T10:02:28.041Z,6.20
2023-01-10T10:05:10.646Z,5.23
2023-01-10T10:07:40.360Z,5.87
2023-01-10T10:10:13.816Z,5.63
2023-01-10T10:12:52.069Z,5.37
2023-01-10T10:15:26.233Z,5.87
2023-01-10T10:18:04.046Z,5.40
2023-01-10T10:20:51.606Z,6.83
2023-01-10T10:23:47.785Z,6.97
2023-01-10T10:26:25.194Z,6.80
2023-01-10T10:29:26.876Z,5.57
2023-01-10T10:32:17.147Z,6.47
2023-01-10T10:34:49.687Z,7.30
2023-01-10T10:37:22.718Z,6.47
2023-01-10T10:39:55.156Z,7.13
2023-01-10T10:42:23.649Z,6.70
2023-01-10T10:45:02.357Z,7.90
2023-01-10T10:47:35.337Z,7.23
2023-01-10T10:50:17.500Z,7.77
2023-01-10T10:52:46.760Z,6.57
2023-01-10T10:55:16.886Z,7.00
2023-01-10T10:57:59.348Z,7.47
2023-01-10T11:00:30.944Z,7.77
2023-01-10T11:03:03.976Z,7.13
2023-01-10T11:05:38.138Z,6.73
2023-01-10T11:08:12.323Z,7.03
2023-01-10T11:10:41.863Z,6.87
2023-01-10T11:13:18.994Z,6.67
2023-01-10T11:15:51.044Z,7.20
2023-01-10T11:18:21.683Z,6.60
2023-01-10T11:20:57.537Z,6.20
2023-01-10T11:23:31.651Z,6.43
2023-01-10T11:26:00.125Z,6.23
2023-01-10T11:28:34.747Z,5.73
2023-01-10T11:31:05.012Z,6.60
2023-01-10T11:33:36.474Z,6.00
2023-01-10T11:36:08.021Z,6.33
2023-01-10T11:38:36.938Z,5.97
2023-01-10T11:41:07.149Z,5.77
2023-01-10T11:43:37.931Z,5.67
2023-01-10T11:46:14.439Z,6.30
2023-01-10T11:51:38.963Z,5.57
2023-01-10T11:54:13.043Z,5.50
2023-01-10T11:56:43.302Z,5.83
2023-01-10T11:59:16.238Z,5.80
2023-01-10T12:01:49.278Z,5.27
2023-01-10T12:04:17.901Z,6.30
2023-01-10T12:06:48.395Z,5.23
2023-01-10T12:09:39.919Z,5.33
2023-01-10T12:12:17.673Z,5.00
2023-01-10T12:14:46.363Z,5.53
2023-01-10T12:17:23.815Z,5.33
2023-01-10T12:19:53.375Z,5.93
2023-01-10T12:22:26.170Z,5.57
2023-01-10T12:24:57.093Z,6.37
2023-01-10T12:27:27.429Z,6.03
2023-01-10T12:30:04.469Z,5.70
2023-01-10T12:32:39.394Z,5.53
2023-01-10T12:35:15.187Z,6.20
2023-01-10T12:37:49.709Z,5.50
2023-01-10T12:40:24.895Z,6.00
2023-01-10T12:43:13.936Z,6.23
2023-01-10T12:45:47.606Z,6.70
2023-01-10T12:48:24.970Z,6.00
2023-01-10T12:50:58.882Z,6.20
2023-01-10T12:53:33.559Z,6.57
2023-01-10T12:56:06.046Z,6.43
2023-01-10T12:58:44.314Z,6.70
2023-01-10T13:01:16.687Z,5.70
2023-01-10T13:03:51.980Z,6.13
2023-01-10T13:06:25.213Z,7.03
2023-01-10T13:08:54.385Z,5.63
2023-01-10T13:11:27.195Z,6.20
2023-01-10T13:14:01.907Z,6.03
2023-01-10T13:16:37.239Z,6.03
2023-01-10T13:19:25.255Z,6.13
2023-01-10T13:22:19.015Z,6.37
2023-01-10T13:25:03.165Z,6.50
2023-01-10T13:27:36.190Z,5.87
2023-01-10T13:30:06.267Z,6.17
2023-01-10T13:32:38.503Z,5.83
2023-01-10T13:35:18.467Z,5.87
2023-01-10T13:37:53.592Z,5.53
2023-01-10T13:40:25.897Z,5.30
2023-01-10T13:43:23.578Z,5.50
2023-01-10T13:46:47.683Z,5.50
2023-01-10T13:49:46.433Z,6.43
2023-01-10T13:52:42.936Z,5.87
2023-01-10T13:55:53.826Z,5.20
2023-01-10T13:59:09.160Z,5.00
2023-01-10T14:01:56.493Z,5.10
2023-01-10T14:04:26.292Z,5.80
2023-01-10T14:06:57.034Z,5.97
2023-01-10T14:09:59.735Z,5.97
2023-01-10T14:12:34.324Z,5.67
2023-01-10T14:15:07.114Z,5.77
2023-01-10T14:17:38.769Z,5.63
2023-01-10T14:20:20.937Z,5.97
2023-01-10T14:23:06.133Z,6.30
2023-01-10T14:25:37.874Z,5.47
2023-01-10T14:28:16.577Z,6.40
2023-01-10T14:30:46.390Z,5.33
2023-01-10T14:33:20.518Z,5.40
2023-01-10T14:35:52.132Z,4.97
2023-01-10T14:38:25.869Z,5.67
2023-01-10T14:41:00.060Z,5.30
2023-01-10T14:43:34.263Z,5.07
2023-01-10T14:46:06.031Z,5.30
2023-01-10T14:48:36.438Z,5.13
2023-01-10T14:51:21.029Z,5.70
2023-01-10T14:53:56.119Z,4.90
2023-01-10T14:56:28.364Z,5.67
2023-01-10T14:58:59.544Z,5.07
2023-01-10T15:01:31.095Z,4.97
2023-01-10T15:04:02.826Z,5.10
2023-01-10T15:06:31.167Z,5.17
2023-01-10T15:09:03.655Z,5.63
2023-01-10T15:11:33.789Z,4.80
2023-01-10T15:14:10.392Z,5.63
2023-01-10T15:16:40.281Z,5.37
2023-01-10T15:19:14.423Z,5.93
2023-01-10T15:21:43.811Z,5.80
2023-01-10T15:24:33.241Z,6.33
2023-01-10T15:27:05.052Z,5.50
2023-01-10T15:29:34.609Z,6.37
2023-01-10T15:32:09.467Z,6.47
2023-01-10T15:34:42.945Z,5.83
2023-01-10T15:37:18.625Z,6.23
2023-01-10T15:39:48.608Z,6.47
2023-01-10T15:42:21.018Z,6.53
2023-01-10T15:44:52.630Z,6.50
2023-01-10T15:47:37.204Z,6.10
2023-01-10T15:50:19.967Z,5.63
2023-01-10T15:52:53.426Z,8.23
2023-01-10T15:55:38.372Z,10.20
2023-01-10T15:58:17.890Z,6.03
2023-01-10T16:00:47.446Z,6.93
2023-01-10T16:03:25.382Z,6.17
2023-01-10T16:05:56.612Z,6.03
2023-01-10T16:08:27.000Z,6.77
2023-01-10T16:10:59.097Z,6.03
2023-01-10T16:13:28.304Z,6.40
2023-01-10T16:15:57.084Z,5.73
2023-01-10T16:18:26.190Z,8.13
2023-01-10T16:20:57.793Z,6.37
2023-01-10T16:23:29.486Z,8.20
2023-01-10T16:26:00.272Z,7.87
2023-01-10T16:28:36.199Z,7.77
2023-01-10T16:31:06.421Z,5.47
2023-01-10T16:33:39.983Z,5.57
2023-01-10T16:36:16.178Z,5.87
2023-01-10T16:38:44.709Z,5.77
2023-01-10T16:41:32.177Z,5.43
2023-01-10T16:44:02.454Z,6.13
2023-01-10T16:46:30.922Z,5.97
2023-01-10T16:48:59.122Z,8.50
2023-01-10T16:51:28.834Z,6.27
2023-01-10T16:54:06.054Z,7.53
2023-01-10T16:56:34.311Z,7.33
2023-01-10T16:59:06.164Z,6.23
2023-01-10T17:01:41.381Z,5.93
2023-01-10T17:04:10.960Z,5.83
2023-01-10T17:06:40.600Z,6.00
2023-01-10T17:09:09.075Z,7.33
2023-01-10T17:11:41.477Z,7.67
2023-01-10T17:14:15.928Z,6.77
2023-01-10T17:16:43.999Z,5.57
2023-01-10T17:19:11.929Z,5.57
2023-01-10T17:21:40.037Z,4.60
2023-01-10T17:24:10.108Z,5.03
2023-01-10T17:26:38.355Z,4.63
2023-01-10T17:29:07.104Z,5.40
2023-01-10T17:32:11.501Z,4.37
2023-01-10T17:35:35.707Z,5.17
2023-01-10T17:41:33.357Z,4.93
2023-01-10T17:53:23.770Z,5.40
2023-01-10T18:13:25.125Z,4.77
2023-01-10T18:15:55.512Z,4.67
2023-01-10T18:18:27.997Z,5.07
2023-01-10T18:21:00.994Z,4.17
2023-01-10T18:23:35.511Z,5.80
2023-01-10T18:27:06.617Z,4.90
2023-01-10T18:29:43.548Z,4.63
2023-01-10T18:32:25.821Z,4.57
2023-01-10T18:34:55.154Z,4.70
2023-01-10T18:37:25.418Z,3.50
2023-01-10T18:39:53.843Z,3.47
2023-01-10T18:42:22.729Z,3.53
2023-01-10T18:44:55.239Z,2.90
2023-01-10T18:47:23.602Z,3.77
2023-01-10T18:49:51.718Z,3.30
2023-01-10T18:52:21.300Z,3.63
2023-01-10T18:54:51.806Z,3.40
2023-01-10T18:57:20.249Z,3.63
2023-01-10T18:59:48.585Z,3.87
2023-01-10T19:02:18.255Z,3.60
2023-01-10T19:04:46.637Z,4.53
2023-01-10T19:07:15.177Z,3.40
2023-01-10T19:09:43.269Z,3.70
2023-01-10T19:12:11.378Z,3.50
2023-01-10T19:14:39.604Z,3.60
2023-01-10T19:17:08.035Z,3.67
2023-01-10T19:19:38.007Z,3.23
2023-01-10T19:22:06.150Z,3.40
2023-01-10T19:24:37.562Z,3.33
2023-01-10T19:27:06.461Z,4.90
2023-01-10T19:29:35.420Z,3.60
2023-01-10T19:32:04.218Z,3.17
2023-01-10T19:34:33.079Z,4.03
2023-01-10T19:37:02.583Z,3.43
2023-01-10T19:39:30.661Z,3.60
2023-01-10T19:41:58.871Z,3.50
2023-01-10T19:44:26.948Z,2.90
2023-01-10T19:46:55.065Z,3.20
2023-01-10T19:49:24.172Z,3.10
2023-01-10T19:51:53.656Z,3.90
2023-01-10T19:54:25.019Z,2.97
2023-01-10T19:56:53.095Z,3.40
2023-01-10T19:59:21.236Z,3.37
2023-01-10T20:01:49.598Z,3.27
2023-01-10T20:04:18.365Z,3.27
2023-01-10T20:06:47.467Z,2.87
2023-01-10T20:09:17.254Z,3.03
2023-01-10T20:11:46.956Z,3.20
2023-01-10T20:14:18.360Z,2.73
2023-01-10T20:16:47.972Z,3.20
2023-01-10T20:19:17.385Z,3.57
2023-01-10T20:21:45.920Z,3.20
2023-01-10T20:24:16.655Z,3.77
2023-01-10T20:26:48.893Z,3.60
2023-01-10T20:29:18.311Z,4.13
2023-01-10T20:31:52.057Z,3.07
2023-01-10T20:34:21.819Z,2.63
2023-01-10T20:36:54.445Z,2.77
2023-01-10T20:39:23.582Z,3.23
2023-01-10T20:41:54.976Z,3.10
2023-01-10T20:44:22.999Z,3.23
2023-01-10T20:46:51.168Z,2.90
2023-01-10T20:49:20.859Z,3.77
2023-01-10T20:51:50.378Z,3.50
2023-01-10T20:54:18.890Z,3.20
2023-01-10T20:56:47.777Z,3.37
2023-01-10T20:59:17.245Z,2.70
2023-01-10T21:01:45.471Z,3.67
2023-01-10T21:04:14.520Z,2.67
2023-01-10T21:06:42.837Z,2.87
2023-01-10T21:09:11.615Z,3.30
2023-01-10T21:11:56.655Z,3.17
2023-01-10T21:14:30.415Z,3.20
2023-01-10T21:16:58.832Z,2.63
2023-01-10T21:19:26.964Z,2.33
2023-01-10T21:21:55.153Z,2.73
2023-01-10T21:24:25.325Z,2.63
2023-01-10T21:26:53.611Z,2.87
2023-01-10T21:29:21.872Z,3.10
2023-01-10T21:31:54.374Z,2.20
2023-01-10T21:34:23.063Z,2.70
2023-01-10T21:36:51.358Z,2.70
2023-01-10T21:39:19.837Z,3.17
2023-01-10T21:42:05.791Z,2.57
2023-01-10T21:44:34.138Z,2.53
2023-01-10T21:47:04.304Z,2.90
2023-01-10T21:49:35.782Z,2.63
2023-01-10T21:52:04.434Z,2.53
2023-01-10T21:54:33.397Z,2.43
2023-01-10T21:57:04.825Z,2.50
2023-01-10T21:59:34.494Z,2.03
2023-01-10T22:02:08.266Z,2.77
2023-01-10T22:04:37.623Z,2.50
2023-01-10T22:07:06.629Z,2.83
2023-01-10T22:09:36.685Z,2.57
2023-01-10T22:12:12.200Z,2.00
2023-01-10T22:14:41.012Z,2.27
2023-01-10T22:17:11.877Z,2.27
2023-01-10T22:19:40.587Z,2.67
2023-01-10T22:22:10.222Z,2.63
2023-01-10T22:24:40.214Z,2.57
2023-01-10T22:27:10.027Z,2.33
2023-01-10T22:29:38.215Z,2.57
2023-01-10T22:32:07.116Z,3.20
2023-01-10T22:34:36.993Z,2.27
2023-01-10T22:37:05.300Z,2.43
2023-01-10T22:39:33.586Z,2.27
2023-01-10T22:42:02.597Z,2.67
2023-01-10T22:44:32.113Z,2.40
2023-01-10T22:47:08.008Z,3.30
2023-01-10T22:49:39.809Z,2.50
2023-01-10T22:52:12.146Z,2.27
2023-01-10T22:54:42.035Z,1.80
2023-01-10T22:57:11.273Z,2.40
2023-01-10T22:59:39.495Z,2.53
2023-01-10T23:02:07.682Z,2.50
2023-01-10T23:04:37.451Z,1.80
2023-01-10T23:07:05.992Z,2.67
2023-01-10T23:09:34.068Z,2.63
2023-01-10T23:12:02.225Z,2.60
2023-01-10T23:14:31.134Z,2.60
2023-01-10T23:16:59.761Z,2.30
2023-01-10T23:19:28.080Z,2.67
2023-01-10T23:21:57.870Z,2.57
2023-01-10T23:24:26.046Z,2.70
2023-01-10T23:26:54.506Z,2.80
2023-01-10T23:29:22.769Z,2.70
2023-01-10T23:31:51.163Z,2.77
2023-01-10T23:34:19.477Z,3.00
2023-01-10T23:36:47.932Z,3.00
2023-01-10T23:39:18.923Z,2.80
2023-01-10T23:41:47.226Z,2.87
2023-01-10T23:44:15.530Z,3.07
2023-01-10T23:46:43.634Z,3.40
2023-01-10T23:49:12.728Z,3.53
2023-01-10T23:51:41.066Z,3.37
2023-01-10T23:54:09.081Z,3.43
2023-01-10T23:56:38.991Z,2.80
2023-01-10T23:59:07.644Z,3.23
